Latest Weather Observations for Mount Read

IDT60801

Issued at 3:02 pm EDT Wednesday 18 January 2017 (issued every 30 minutes, with the page automatically refreshed every 10 minutes)

About weather observations | Map of weather stations | Latest weather observations for TAS | Other Formats
Station Details ID: 097085 Name: MOUNT READ Lat: -41.84 Lon: 145.54 Height: 1119.5 m
Data from the previous 72 hours. | See also: Recent months at Mount Read
Date/Time
EDT
Temp
°C
App
Temp
°C
Dew
Point
°C
Rel
Hum
%
Delta-T
°C
Wind Press
QNH
hPa
Press
MSL
hPa
Rain since
9am
mm
Dir  Spd
km/h
Gust
km/h
Spd
kts
Gust
kts
18/03:00pm 6.7 -4.4 2.4 74 1.9 SSW 50 61 27 33 - 1011.2 0.2
18/02:30pm 6.7 -4.0 2.8 76 1.7 SSW 48 65 26 35 1013.0 1011.1 0.2
18/02:00pm 6.8 -3.6 1.9 71 2.1 SSW 46 63 25 34 1012.7 1010.8 0.2
18/01:30pm 5.9 -4.2 3.6 85 1.0 SSW 46 67 25 36 1012.3 1010.4 0.2
18/01:29pm 5.6 -4.6 3.4 86 1.0 SSW 46 67 25 36 1012.3 1010.4 0.2
18/01:00pm 5.8 -4.8 3.3 84 1.1 SSW 48 67 26 36 1011.9 1010.0 0.2
18/12:36pm 5.2 -4.6 5.2 100 0.0 SSW 46 69 25 37 1011.4 1009.5 0.0
18/12:30pm 5.0 -5.6 5.0 100 0.0 SSW 50 65 27 35 1011.5 1009.6 0.0
18/12:01pm 5.4 -5.9 5.4 100 0.0 SSW 54 74 29 40 1010.8 1008.8 0.0
18/12:00pm 5.4 -5.9 5.4 100 0.0 SSW 54 69 29 37 1010.8 1008.8 0.0
18/11:41am 4.4 -6.0 4.4 100 0.0 SSW 48 67 26 36 1010.5 1008.6 0.0
18/11:30am 4.4 -6.7 4.4 100 0.0 SSW 52 69 28 37 1010.4 1008.5 0.0
18/11:01am 4.4 -6.0 4.4 100 0.0 SSW 48 70 26 38 1009.9 1007.9 0.0
18/11:00am 4.5 -5.8 4.5 100 0.0 SSW 48 63 26 34 1009.9 1007.9 0.0
18/10:30am 3.9 -6.2 3.9 100 0.0 SSW 46 70 25 38 1009.5 1007.6 0.0
18/10:10am 4.3 -6.1 4.3 100 0.0 SSW 48 67 26 36 1009.4 1007.5 0.0
18/10:00am 4.1 -7.5 4.1 100 0.0 SSW 54 70 29 38 1009.0 1007.0 0.0
18/09:47am 4.2 -7.3 4.2 100 0.0 SSW 54 80 29 43 1008.6 1006.7 0.0
18/09:46am 4.1 -7.1 4.1 100 0.0 SSW 52 80 28 43 1008.5 1006.5 0.0
18/09:30am 4.1 -5.0 4.1 100 0.0 SSW 41 65 22 35 1008.9 1006.9 0.0
18/09:00am 3.8 -7.1 3.8 100 0.0 SSW 50 76 27 41 1008.3 1006.3 8.2
18/08:30am 3.7 -6.8 3.7 100 0.0 SW 48 70 26 38 1008.2 1006.2 8.2
18/08:24am 3.5 -8.2 3.5 100 0.0 SW 54 76 29 41 1007.7 1005.7 8.2
18/08:20am 3.3 -8.8 3.3 100 0.0 SW 56 76 30 41 1007.5 1005.5 8.2
18/08:00am 3.8 -5.3 3.8 100 0.0 SW 41 65 22 35 1007.6 1005.6 8.2
18/07:34am 3.5 -6.6 3.5 100 0.0 SW 46 65 25 35 1007.1 1005.1 7.8
18/07:30am 3.5 -7.0 3.5 100 0.0 SW 48 65 26 35 1007.3 1005.3 7.8
18/07:00am 3.5 -4.0 3.5 100 0.0 SW 32 56 17 30 1007.2 1005.2 7.8
18/06:30am 3.6 -5.6 3.6 100 0.0 SW 41 63 22 34 1006.4 1004.4 7.8
18/06:03am 3.6 -6.0 3.6 100 0.0 SW 43 61 23 33 1006.1 1004.0 7.8
18/06:00am 3.6 -6.5 3.6 100 0.0 SW 46 61 25 33 1006.1 1004.0 7.8
18/05:37am 3.8 -6.3 3.8 100 0.0 SW 46 65 25 35 1005.6 1003.6 7.8
18/05:30am 3.9 -6.9 3.9 100 0.0 SW 50 61 27 33 1005.5 1003.5 7.8
18/05:08am 3.9 -8.1 3.9 100 0.0 SW 56 76 30 41 1004.8 1002.8 7.8
18/05:00am 4.1 -7.1 4.1 100 0.0 SW 52 70 28 38 1004.8 1002.8 7.8
18/04:37am 3.9 -8.1 3.9 100 0.0 SW 56 76 30 41 1004.8 1002.8 7.6
18/04:30am 3.5 -9.1 3.5 100 0.0 SW 59 72 32 39 1004.6 1002.6 7.6
18/04:10am 4.0 -6.8 4.0 100 0.0 WSW 50 82 27 44 1004.7 1002.7 6.6
18/04:08am 4.0 -6.4 4.0 100 0.0 WSW 48 82 26 44 1004.6 1002.6 6.4
18/04:06am 5.0 -4.5 5.0 100 0.0 WSW 44 65 24 35 1004.8 1002.8 6.4
18/04:00am 4.8 -5.1 4.8 100 0.0 WSW 46 57 25 31 1005.0 1002.9 5.8
18/03:57am 4.7 -5.6 4.7 100 0.0 WSW 48 67 26 36 1005.0 1002.9 5.6
18/03:39am 4.7 -4.8 4.7 100 0.0 W 44 67 24 36 1004.7 1002.7 5.4
18/03:30am 5.1 -1.7 5.1 100 0.0 WSW 30 59 16 32 1005.2 1003.1 5.2
18/03:07am 4.9 -3.3 4.9 100 0.0 WSW 37 57 20 31 1005.2 1003.1 5.2
18/03:00am 4.8 -4.2 4.8 100 0.0 WSW 41 57 22 31 1005.4 1003.4 5.2
18/02:30am 4.8 -3.8 4.8 100 0.0 W 39 50 21 27 1005.6 1003.6 5.2
18/02:11am 4.5 -3.4 4.5 100 0.0 WSW 35 56 19 30 1005.9 1003.8 5.2
18/02:00am 4.6 -3.6 4.6 100 0.0 WSW 37 50 20 27 1006.0 1003.9 5.2
18/01:42am 5.0 -2.8 5.0 100 0.0 WSW 35 57 19 31 1006.0 1003.9 5.2
18/01:30am 5.1 -3.0 5.1 100 0.0 WSW 37 52 20 28 1006.2 1004.1 5.2
18/01:03am 4.9 -1.9 4.9 100 0.0 WSW 30 48 16 26 1006.2 1004.1 5.2
18/01:00am 4.8 -1.7 4.8 100 0.0 WSW 28 39 15 21 1006.2 1004.1 5.2
18/12:30am 5.8 -1.4 5.8 100 0.0 WSW 33 43 18 23 1006.4 1004.4 5.2
18/12:14am 6.5 -0.6 6.5 100 0.0 W 33 54 18 29 1006.4 1004.4 5.2
18/12:00am 6.7 -1.5 6.7 100 0.0 W 39 46 21 25 1006.4 1004.4 5.2
 
Date/Time
EDT
Temp
°C
App
Temp
°C
Dew
Point
°C
Rel
Hum
%
Delta-T
°C
Wind Press
QNH
hPa
Press
MSL
hPa
Rain since
9am
mm
Dir  Spd
km/h
Gust
km/h
Spd
kts
Gust
kts
17/11:30pm 7.6 -1.1 7.6 100 0.0 W 43 57 23 31 1006.4 1004.4 5.2
17/11:05pm 8.1 2.3 8.1 100 0.0 W 28 48 15 26 1006.7 1004.7 4.8
17/11:00pm 8.1 2.7 8.1 100 0.0 W 26 41 14 22 1007.1 1005.1 4.6
17/10:30pm 8.2 1.7 8.2 100 0.0 W 32 43 17 23 1006.9 1004.8 4.0
17/10:00pm 8.7 3.5 8.7 100 0.0 WNW 26 37 14 20 1006.9 1004.8 3.8
17/09:30pm 8.7 3.9 8.7 100 0.0 WNW 24 43 13 23 1006.3 1004.3 3.4
17/09:00pm 8.8 4.4 8.8 100 0.0 NW 22 33 12 18 1006.1 1004.0 2.2
17/08:49pm 8.8 3.2 8.8 100 0.0 WNW 28 41 15 22 1006.1 1004.0 2.0
17/08:30pm 8.8 4.9 8.8 100 0.0 NW 19 35 10 19 1005.9 1003.8 1.8
17/08:00pm 8.8 3.6 8.8 100 0.0 WNW 26 39 14 21 1006.3 1004.3 1.4
17/07:30pm 9.0 4.2 9.0 100 0.0 NW 24 37 13 20 1006.3 1004.3 1.4
17/07:00pm 8.7 3.5 8.7 100 0.0 NW 26 35 14 19 1006.0 1003.9 1.0
17/06:30pm 9.0 3.5 9.0 100 0.0 NW 28 35 15 19 1006.1 1004.0 0.4
17/06:00pm 9.8 4.8 9.7 99 0.1 NW 26 32 14 17 1005.6 1003.6 0.0
17/05:30pm 10.4 5.3 9.2 92 0.6 NNW 26 37 14 20 1006.0 1003.9 0.0
17/05:00pm 10.1 5.6 10.0 99 0.1 NW 24 37 13 20 1007.0 1004.9 0.0
17/04:30pm 11.4 8.5 9.5 88 1.0 NW 15 28 8 15 1006.7 1004.7 0.0
17/04:00pm 12.1 8.7 9.1 82 1.6 NNW 17 32 9 17 1006.9 1004.8 0.0
17/03:30pm 12.4 7.6 8.9 79 1.9 NNW 24 35 13 19 1007.0 1004.9 0.0
17/03:00pm 13.4 9.7 9.3 76 2.2 N 19 30 10 16 1007.3 1005.3 0.0
17/02:30pm 14.2 11.5 9.0 71 2.8 NNW 13 26 7 14 1007.6 1005.6 0.0
17/02:00pm 14.5 10.8 7.8 64 3.5 NW 17 32 9 17 1008.0 1006.0 0.0
17/01:30pm 15.2 10.1 9.3 68 3.2 NW 26 41 14 22 1008.2 1006.2 0.0
17/01:00pm 14.2 10.3 9.4 73 2.6 NW 20 44 11 24 1008.3 1006.3 0.0
17/12:30pm 14.2 10.5 9.6 74 2.5 NW 19 37 10 20 1008.0 1006.0 0.0
17/12:00pm 14.0 10.5 8.8 71 2.8 NNW 17 33 9 18 1008.1 1006.1 0.0
17/11:30am 13.1 8.5 8.2 72 2.6 NNW 22 39 12 21 1008.3 1006.3 0.0
17/11:00am 12.3 7.2 7.6 73 2.4 NNW 24 41 13 22 1008.2 1006.2 0.0
17/10:30am 11.7 6.3 6.4 70 2.7 NNW 24 43 13 23 1008.6 1006.7 0.0
17/10:00am 10.9 6.9 6.8 76 2.1 NNW 17 24 9 13 1008.1 1006.1 0.0
17/09:30am 10.3 4.9 6.3 76 2.0 NNW 24 39 13 21 1008.6 1006.7 0.0
17/09:00am 9.6 4.8 5.6 76 2.0 NNW 20 33 11 18 1008.3 1006.3 0.6
17/08:30am 8.4 3.2 5.3 81 1.5 NNW 22 30 12 16 1008.4 1006.4 0.6
17/08:00am 8.6 2.8 4.4 75 2.0 NNW 24 33 13 18 1008.4 1006.4 0.6
17/07:30am 8.7 1.7 4.1 73 2.2 NW 30 37 16 20 1008.2 1006.2 0.6
17/07:00am 8.4 1.8 4.2 75 2.0 NW 28 41 15 22 1008.4 1006.4 0.6
17/06:30am 8.3 1.6 3.6 72 2.2 NW 28 37 15 20 1008.1 1006.1 0.6
17/06:00am 8.6 1.8 3.0 68 2.6 NW 28 33 15 18 1008.1 1006.1 0.6
17/05:30am 8.7 1.4 2.7 66 2.7 NW 30 33 16 18 1008.0 1006.0 0.6
17/05:00am 8.9 3.2 2.7 65 2.8 NNW 22 30 12 16 1007.7 1005.7 0.6
17/04:30am 9.3 3.9 2.4 62 3.1 NNW 20 32 11 17 1007.7 1005.7 0.6
17/04:00am 9.7 3.8 1.8 58 3.6 NNW 22 33 12 18 1007.7 1005.7 0.6
17/03:30am 10.1 3.5 2.2 58 3.6 NW 26 35 14 19 1007.9 1005.9 0.6
17/03:00am 10.8 3.8 2.1 55 4.0 NW 28 41 15 22 1008.0 1006.0 0.6
17/02:50am 10.9 3.1 2.0 54 4.0 NW 32 50 17 27 1008.1 1006.1 0.6
17/02:30am 11.2 2.8 1.5 51 4.4 WNW 35 48 19 26 1008.1 1006.1 0.6
17/02:00am 10.7 2.4 2.0 55 4.0 WNW 35 44 19 24 1008.5 1006.5 0.6
17/01:30am 10.2 1.9 2.3 58 3.6 WNW 35 44 19 24 1008.8 1006.8 0.6
17/01:00am 9.7 1.2 3.0 63 3.1 WNW 37 44 20 24 1009.1 1007.1 0.6
17/12:30am 8.4 0.0 3.7 72 2.2 WNW 37 52 20 28 1009.4 1007.5 0.6
17/12:00am 6.8 0.7 6.8 100 0.0 NW 28 33 15 18 1009.6 1007.7 0.6
 
Date/Time
EDT
Temp
°C
App
Temp
°C
Dew
Point
°C
Rel
Hum
%
Delta-T
°C
Wind Press
QNH
hPa
Press
MSL
hPa
Rain since
9am
mm
Dir  Spd
km/h
Gust
km/h
Spd
kts
Gust
kts
16/11:30pm 6.9 1.2 6.9 100 0.0 NNW 26 30 14 16 1010.1 1008.1 0.6
16/11:00pm 7.2 1.2 7.2 100 0.0 NW 28 33 15 18 1010.3 1008.4 0.6
16/10:30pm 7.8 2.4 7.8 100 0.0 NW 26 33 14 18 1010.8 1008.8 0.6
16/10:00pm 8.3 3.7 8.2 99 0.1 NW 22 28 12 15 1011.0 1009.1 0.6
16/09:30pm 9.1 4.1 6.5 84 1.3 NW 22 32 12 17 1011.0 1009.1 0.6
16/09:00pm 9.3 2.2 6.4 82 1.4 NW 33 37 18 20 1010.8 1008.8 0.6
16/08:30pm 10.1 3.3 6.8 80 1.7 NW 32 43 17 23 1010.9 1008.9 0.6
16/08:00pm 10.8 5.0 7.9 82 1.5 NW 28 41 15 22 1011.0 1009.1 0.6
16/07:30pm 11.3 5.6 8.2 81 1.6 NW 28 35 15 19 1010.8 1008.8 0.6
16/07:00pm 11.7 6.4 8.4 80 1.7 NW 26 39 14 21 1011.0 1009.1 0.6
16/06:30pm 11.9 5.7 7.8 76 2.1 NW 30 41 16 22 1011.1 1009.2 0.6
16/06:00pm 11.6 7.2 11.6 100 0.0 NW 26 39 14 21 1011.3 1009.4 0.6
16/05:30pm 11.6 7.9 11.6 100 0.0 NW 22 37 12 20 1011.5 1009.6 0.6
16/05:00pm 10.8 6.5 10.8 100 0.0 NNW 24 35 13 19 1011.6 1009.7 0.6
16/04:30pm 11.5 8.2 11.5 100 0.0 NNW 20 32 11 17 1011.9 1010.0 0.6
16/04:00pm 10.9 6.6 10.9 100 0.0 NW 24 32 13 17 1012.1 1010.2 0.6
16/03:30pm 10.6 7.6 10.6 100 0.0 NW 17 26 9 14 1012.3 1010.4 0.6
16/03:00pm 9.9 6.3 9.9 100 0.0 NW 19 33 10 18 1012.5 1010.7 0.6
16/02:30pm 9.4 5.1 9.4 100 0.0 NW 22 35 12 19 1012.7 1010.8 0.6
16/02:00pm 9.2 5.4 9.2 100 0.0 NW 19 33 10 18 1012.8 1010.9 0.6
16/01:30pm 8.4 3.9 8.4 100 0.0 NW 22 32 12 17 1012.8 1010.9 0.6
16/01:00pm 8.5 4.0 8.5 100 0.0 NW 22 33 12 18 1013.1 1011.2 0.6
16/12:30pm 8.3 4.3 8.3 100 0.0 NNW 19 33 10 18 1013.3 1011.5 0.6
16/12:00pm 8.2 4.0 8.2 100 0.0 NNW 20 30 11 16 1013.3 1011.5 0.6
16/11:30am 8.0 4.7 8.0 100 0.0 NNW 15 28 8 15 1013.5 1011.7 0.4
16/11:00am 8.2 4.6 8.2 100 0.0 NNW 17 28 9 15 1013.5 1011.7 0.4
16/10:30am 7.2 2.8 7.2 100 0.0 NNW 20 30 11 16 1013.7 1011.8 0.4
16/10:00am 6.7 2.1 6.7 100 0.0 NW 20 35 11 19 1013.9 1012.0 0.4
16/09:30am 6.8 2.8 6.8 100 0.0 NNW 17 30 9 16 1013.8 1011.9 0.0
16/09:00am 6.2 2.9 6.2 100 0.0 NW 13 22 7 12 1013.5 1011.7 6.6
16/08:30am 5.9 2.1 5.9 100 0.0 NW 15 26 8 14 1013.2 1011.3 6.4
16/08:00am 5.2 -0.1 5.2 100 0.0 WNW 22 32 12 17 1013.2 1011.3 6.4
16/07:30am 4.8 -0.2 4.8 100 0.0 WNW 20 30 11 16 1013.0 1011.1 6.4
16/07:00am 5.0 0.1 5.0 100 0.0 W 20 28 11 15 1013.0 1011.1 6.4
16/06:30am 5.2 0.3 5.2 100 0.0 WNW 20 30 11 16 1012.9 1011.0 6.2
16/06:00am 4.9 0.1 4.9 100 0.0 WNW 19 24 10 13 1012.7 1010.8 5.8
16/05:30am 4.9 -0.8 4.9 100 0.0 W 24 32 13 17 1012.5 1010.7 5.8
16/05:00am 5.3 0.4 5.3 100 0.0 WNW 20 28 11 15 1012.4 1010.5 5.2
16/04:30am 5.0 0.3 5.0 100 0.0 WNW 19 28 10 15 1012.3 1010.4 4.6
16/04:00am 4.9 0.1 4.9 100 0.0 WNW 19 30 10 16 1012.2 1010.3 4.6
16/03:30am 5.0 0.1 5.0 100 0.0 W 20 26 11 14 1012.3 1010.4 4.6
16/03:00am 5.3 -0.3 5.3 100 0.0 WNW 24 30 13 16 1012.7 1010.8 4.2
16/02:30am 5.1 0.2 5.1 100 0.0 WNW 20 30 11 16 1012.8 1010.9 3.6
16/02:00am 4.9 0.5 4.9 100 0.0 NW 17 28 9 15 1013.0 1011.1 3.2
16/01:30am 4.8 0.4 4.8 100 0.0 NW 17 32 9 17 1013.3 1011.5 2.8
16/01:00am 4.8 -0.2 4.8 100 0.0 WNW 20 30 11 16 1013.8 1011.9 2.8
16/12:30am 4.8 -0.2 4.8 100 0.0 W 20 33 11 18 1014.1 1012.3 2.8
16/12:00am 5.0 -1.8 5.0 100 0.0 W 30 39 16 21 1014.2 1012.4 2.4
 
Date/Time
EDT
Temp
°C
App
Temp
°C
Dew
Point
°C
Rel
Hum
%
Delta-T
°C
Wind Press
QNH
hPa
Press
MSL
hPa
Rain since
9am
mm
Dir  Spd
km/h
Gust
km/h
Spd
kts
Gust
kts
15/11:30pm 5.3 1.4 5.3 100 0.0 WNW 15 22 8 12 1014.4 1012.6 1.8
15/11:00pm 5.2 0.3 5.2 100 0.0 WNW 20 28 11 15 1014.5 1012.7 1.2
15/10:30pm 5.2 -0.1 5.2 100 0.0 W 22 35 12 19 1014.7 1012.8 1.2
15/10:00pm 5.0 -1.1 5.0 100 0.0 W 26 33 14 18 1014.8 1012.9 1.0
15/09:30pm 5.2 -0.1 5.2 100 0.0 W 22 30 12 16 1014.8 1012.9 0.8
15/09:00pm 4.9 0.0 4.9 100 0.0 W 20 26 11 14 1014.9 1013.1 0.8
15/08:30pm 4.9 -0.4 4.9 100 0.0 W 22 32 12 17 1014.9 1013.1 0.8
15/08:00pm 5.1 -0.9 5.1 100 0.0 W 26 33 14 18 1014.8 1012.9 0.8
15/07:30pm 5.4 0.2 5.4 100 0.0 W 22 30 12 16 1014.7 1012.8 0.8
15/07:00pm 5.5 0.3 5.5 100 0.0 W 22 30 12 16 1014.7 1012.8 0.8
15/06:30pm 5.4 -0.2 5.4 100 0.0 W 24 32 13 17 1014.7 1012.8 0.8
15/06:00pm 5.4 -0.6 5.4 100 0.0 W 26 33 14 18 1014.9 1013.1 0.8
15/05:30pm 5.5 -0.1 5.5 100 0.0 W 24 33 13 18 1015.1 1013.3 0.8
15/05:00pm 5.7 0.9 5.7 100 0.0 W 20 30 11 16 1015.3 1013.5 0.6
15/04:30pm 5.6 0.0 5.6 100 0.0 W 24 35 13 19 1015.7 1013.9 0.6
15/04:00pm 5.8 0.7 5.8 100 0.0 WNW 22 35 12 19 1015.8 1014.0 0.6
15/03:30pm 5.8 0.7 5.8 100 0.0 WNW 22 37 12 20 1015.7 1013.9 0.6

Other Formats:

Comma delimited format used in spreadsheet applications
http://www.bom.gov.au/fwo/IDT60801/IDT60801.95952.axf

JavaScript Object Notation format (JSON) in row-major order
http://www.bom.gov.au/fwo/IDT60801/IDT60801.95952.json